Time;durP1;ratioP1;P1;durP2;ratioP2;P2;SDS_P1;SDS_P2;PMS_P1;PMS_P2;Temp;Humidity;BMP_temperature;BMP_pressure;BME280_temperature;BME280_humidity;BME280_pressure;Samples;Min_cycle;Max_cycle;Signal;HPM_P1;HPM_P2
2023/08/31 00:00:26;;;;;;;;;;;;;;;19.48;51.06;100846.69;4195005;28;20351;-65
2023/08/31 00:02:28;;;;;;;;;;;;;;;19.47;51.30;100848.50;4193838;28;20377;-65
2023/08/31 00:04:29;;;;;;;;;;;;;;;19.47;51.00;100847.66;4194136;28;20024;-66
2023/08/31 00:06:31;;;;;;;;;;;;;;;19.47;50.79;100853.00;4194868;28;19928;-65
2023/08/31 00:08:33;;;;;;;;;;;;;;;19.45;51.07;100858.44;4194855;28;19924;-66
2023/08/31 00:10:35;;;;;;;;;;;;;;;19.45;50.97;100861.13;4194843;28;19960;-66
2023/08/31 00:12:37;;;;;;;;;;;;;;;19.46;51.20;100859.28;4193804;28;20344;-66
2023/08/31 00:14:38;;;;;;;;;;;;;;;19.44;51.37;100867.41;4194906;28;20334;-66
2023/08/31 00:16:40;;;;;;;;;;;;;;;19.44;51.09;100863.88;4194151;27;19925;-66
2023/08/31 00:18:42;;;;;;;;;;;;;;;19.44;51.09;100858.53;4194881;28;19948;-65
2023/08/31 00:20:43;;;;;;;;;;;;;;;19.44;51.22;100853.19;4194726;28;20031;-66
2023/08/31 00:22:45;;;;;;;;;;;;;;;19.44;50.95;100858.53;4193676;28;19953;-66
2023/08/31 00:24:46;;;;;;;;;;;;;;;19.43;51.18;100859.50;4194823;28;19946;-66
2023/08/31 00:26:50;;;;;;;;;;;;;;;19.42;51.24;100858.66;4194700;27;19949;-66
2023/08/31 00:28:53;;;;;;;;;;;;;;;19.43;51.37;100863.03;4209824;28;19996;-66
2023/08/31 00:30:55;;;;;;;;;;;;;;;19.42;51.32;100863.16;4194010;28;20385;-66
2023/08/31 00:32:59;;;;;;;;;;;;;;;19.42;51.35;100863.16;4193876;28;20129;-65
2023/08/31 00:35:02;;;;;;;;;;;;;;;19.42;51.25;100858.66;4194491;27;20043;-66
2023/08/31 00:37:04;;;;;;;;;;;;;;;19.41;51.43;100848.94;4194615;28;20013;-65
2023/08/31 00:39:06;;;;;;;;;;;;;;;19.41;51.34;100845.44;4194574;28;19931;-64
2023/08/31 00:41:08;;;;;;;;;;;;;;;19.40;51.27;100833.88;4193831;28;19935;-65
2023/08/31 00:43:09;;;;;;;;;;;;;;;19.40;51.37;100841.06;4194362;28;19924;-64
2023/08/31 00:45:11;;;;;;;;;;;;;;;19.40;51.47;100833.06;4194195;28;19924;-65
2023/08/31 00:47:13;;;;;;;;;;;;;;;19.39;51.45;100844.69;4194325;28;19925;-65
2023/08/31 00:49:15;;;;;;;;;;;;;;;19.40;51.35;100846.38;4194421;28;20007;-66
2023/08/31 00:51:17;;;;;;;;;;;;;;;19.39;51.51;100842.84;4193725;28;19932;-65
2023/08/31 00:53:19;;;;;;;;;;;;;;;19.38;51.34;100843.84;4194127;28;19950;-65
2023/08/31 00:55:20;;;;;;;;;;;;;;;19.39;51.25;100839.34;4194328;28;20015;-65
2023/08/31 00:57:22;;;;;;;;;;;;;;;19.38;51.34;100838.50;4194196;28;19972;-65
2023/08/31 00:59:24;;;;;;;;;;;;;;;19.38;51.20;100838.50;4193915;28;19924;-65
2023/08/31 01:01:25;;;;;;;;;;;;;;;19.38;51.26;100838.50;4193434;28;20108;-65
2023/08/31 01:03:35;;;;;;;;;;;;;;;19.39;51.40;100844.69;4194279;28;19928;-65
2023/08/31 01:05:44;;;;;;;;;;;;;;;19.38;51.59;100837.63;4194284;28;19959;-65
2023/08/31 01:07:54;;;;;;;;;;;;;;;19.38;51.37;100841.16;4194547;28;20369;-65
2023/08/31 01:10:05;;;;;;;;;;;;;;;19.37;51.10;100839.47;4194149;28;19925;-65
2023/08/31 01:12:11;;;;;;;;;;;;;;;19.37;51.48;100839.47;4193386;28;20389;-65
2023/08/31 01:14:19;;;;;;;;;;;;;;;19.37;51.50;100841.25;4193952;28;19931;-64
2023/08/31 01:16:26;;;;;;;;;;;;;;;19.36;51.40;100840.41;4194186;28;19956;-65
2023/08/31 01:18:29;;;;;;;;;;;;;;;19.35;51.60;100844.03;4197140;28;20290;-64
2023/08/31 01:20:54;;;;;;;;;;;;;;;19.36;51.15;100839.56;4197261;28;19924;-65
2023/08/31 01:23:00;;;;;;;;;;;;;;;19.35;51.53;100849.38;4196036;28;20245;-65
2023/08/31 01:25:04;;;;;;;;;;;;;;;19.35;51.46;100852.03;4212586;28;19924;-65
2023/08/31 01:27:05;;;;;;;;;;;;;;;19.34;51.47;100853.00;4196859;28;20007;-65
2023/08/31 01:29:07;;;;;;;;;;;;;;;19.33;51.67;100850.44;4196445;28;19977;-65
2023/08/31 01:31:09;;;;;;;;;;;;;;;19.34;51.61;100854.81;4196920;27;20207;-65
2023/08/31 01:33:12;;;;;;;;;;;;;;;19.34;51.53;100852.16;4196495;28;20005;-65
2023/08/31 01:35:16;;;;;;;;;;;;;;;19.32;51.65;100854.94;4197233;28;20358;-65
2023/08/31 01:37:21;;;;;;;;;;;;;;;19.32;51.71;100849.59;4196855;28;19969;-65
2023/08/31 01:39:30;;;;;;;;;;;;;;;19.31;51.40;100859.41;4196731;28;20309;-65
2023/08/31 01:41:34;;;;;;;;;;;;;;;19.30;51.29;100857.69;4195981;28;19935;-65
2023/08/31 01:43:36;;;;;;;;;;;;;;;19.31;51.39;100867.41;4196398;28;19929;-65
2023/08/31 01:45:38;;;;;;;;;;;;;;;19.29;51.84;100861.31;4179163;28;19932;-65
2023/08/31 01:47:40;;;;;;;;;;;;;;;19.30;51.44;100863.03;4196656;28;19925;-65
2023/08/31 01:49:47;;;;;;;;;;;;;;;19.29;51.75;100863.13;4196531;28;20427;-65
2023/08/31 01:51:48;;;;;;;;;;;;;;;19.29;51.68;100857.81;4195761;28;19928;-65
2023/08/31 01:53:50;;;;;;;;;;;;;;;19.29;51.67;100857.81;4196494;28;19924;-65
2023/08/31 01:55:52;;;;;;;;;;;;;;;19.28;51.80;100854.31;4196806;28;19959;-65
2023/08/31 01:57:58;;;;;;;;;;;;;;;19.29;51.59;100855.13;4196294;28;19928;-65
2023/08/31 02:00:05;;;;;;;;;;;;;;;19.29;51.64;100857.81;4196336;28;20017;-65
2023/08/31 02:02:07;;;;;;;;;;;;;;;19.29;51.73;100849.81;4177963;28;20357;-65
2023/08/31 02:04:09;;;;;;;;;;;;;;;19.29;51.63;100860.47;4196571;27;20392;-65
2023/08/31 02:06:10;;;;;;;;;;;;;;;19.28;51.66;100854.31;4178852;28;19925;-65
2023/08/31 02:08:17;;;;;;;;;;;;;;;19.28;51.52;100851.63;4196191;28;19931;-65
2023/08/31 02:10:19;;;;;;;;;;;;;;;19.27;51.56;100846.38;4196403;28;20286;-65
2023/08/31 02:12:20;;;;;;;;;;;;;;;19.28;51.77;100853.44;4195194;28;20023;-65
2023/08/31 02:14:23;;;;;;;;;;;;;;;19.28;51.86;100850.75;4196422;28;19947;-65
2023/08/31 02:16:24;;;;;;;;;;;;;;;19.27;51.88;100852.59;4178519;27;19931;-65
2023/08/31 02:18:31;;;;;;;;;;;;;;;19.28;51.55;100842.75;4196387;28;20456;-66
2023/08/31 02:20:37;;;;;;;;;;;;;;;19.26;51.53;100850.88;4196341;28;20019;-66
2023/08/31 02:22:43;;;;;;;;;;;;;;;19.26;51.70;100850.00;4195406;28;20019;-65
2023/08/31 02:24:45;;;;;;;;;;;;;;;19.26;51.74;100848.22;4178469;28;19977;-65
2023/08/31 02:26:48;;;;;;;;;;;;;;;19.26;51.69;100842.88;4195978;28;20366;-66
2023/08/31 02:28:49;;;;;;;;;;;;;;;19.26;51.89;100850.88;4195804;28;20309;-65
2023/08/31 02:31:01;;;;;;;;;;;;;;;19.26;51.79;100847.34;4195994;28;19931;-65
2023/08/31 02:33:02;;;;;;;;;;;;;;;19.24;51.75;100843.94;4195078;28;19931;-64
2023/08/31 02:35:04;;;;;;;;;;;;;;;19.25;51.77;100849.16;4196059;28;19924;-64
2023/08/31 02:37:06;;;;;;;;;;;;;;;19.25;51.63;100853.66;4196104;28;19936;-64
2023/08/31 02:39:07;;;;;;;;;;;;;;;19.23;51.91;100851.09;4195963;28;19924;-64
2023/08/31 02:41:09;;;;;;;;;;;;;;;19.23;51.70;100845.75;4195718;28;20381;-64
2023/08/31 02:43:11;;;;;;;;;;;;;;;19.22;51.65;100852.03;4194975;28;19925;-65
2023/08/31 02:45:13;;;;;;;;;;;;;;;19.22;51.73;100843.19;4196103;28;20049;-66
2023/08/31 02:47:14;;;;;;;;;;;;;;;19.21;51.77;100863.69;4195766;28;19925;-65
2023/08/31 02:49:16;;;;;;;;;;;;;;;19.23;51.89;100860.91;4195827;28;19978;-64
2023/08/31 02:51:17;;;;;;;;;;;;;;;19.21;51.84;100854.81;4196076;28;20020;-65
2023/08/31 02:53:19;;;;;;;;;;;;;;;19.20;52.00;100853.97;4194801;28;19976;-66
2023/08/31 02:55:21;;;;;;;;;;;;;;;19.21;51.93;100847.69;4195688;28;19931;-65
2023/08/31 02:57:23;;;;;;;;;;;;;;;19.20;51.96;100853.09;4195962;28;19931;-65
2023/08/31 02:59:24;;;;;;;;;;;;;;;19.20;51.77;100850.44;4195713;28;19924;-65
2023/08/31 03:01:26;;;;;;;;;;;;;;;19.20;52.09;100850.44;4195519;28;20293;-65
2023/08/31 03:03:28;;;;;;;;;;;;;;;19.20;51.97;100850.44;4194794;28;19925;-66
2023/08/31 03:05:30;;;;;;;;;;;;;;;19.20;52.12;100855.78;4195791;27;19979;-65
2023/08/31 03:07:31;;;;;;;;;;;;;;;19.18;52.08;100863.88;4195809;28;19976;-65
2023/08/31 03:09:33;;;;;;;;;;;;;;;19.19;52.16;100857.59;4195185;28;19924;-65
2023/08/31 03:11:34;;;;;;;;;;;;;;;19.19;51.93;100864.72;4210559;28;19928;-66
2023/08/31 03:13:36;;;;;;;;;;;;;;;19.18;52.05;100847.91;4195774;28;19988;-65
2023/08/31 03:15:38;;;;;;;;;;;;;;;19.19;52.03;100846.94;4195344;28;19924;-65
2023/08/31 03:17:40;;;;;;;;;;;;;;;19.18;52.04;100839.06;4195194;28;19966;-65
2023/08/31 03:19:42;;;;;;;;;;;;;;;19.18;51.94;100841.72;4176807;28;19929;-65
2023/08/31 03:21:43;;;;;;;;;;;;;;;19.19;52.04;100844.28;4194442;28;19928;-65
2023/08/31 03:23:45;;;;;;;;;;;;;;;19.17;51.95;100835.50;4195616;28;20353;-65
2023/08/31 03:25:46;;;;;;;;;;;;;;;19.16;51.97;100839.13;4195014;28;20003;-65
2023/08/31 03:27:48;;;;;;;;;;;;;;;19.18;52.08;100844.38;4195378;28;19966;-64
2023/08/31 03:29:49;;;;;;;;;;;;;;;19.16;52.15;100844.47;4177365;28;19931;-64
2023/08/31 03:31:51;;;;;;;;;;;;;;;19.17;52.02;100837.34;4194463;28;19925;-65
2023/08/31 03:33:52;;;;;;;;;;;;;;;19.17;52.13;100834.69;4194932;28;19938;-65
2023/08/31 03:35:54;;;;;;;;;;;;;;;19.15;51.87;100837.47;4195409;28;19977;-66
2023/08/31 03:37:56;;;;;;;;;;;;;;;19.15;52.12;100827.63;4195292;28;19930;-66
2023/08/31 03:39:57;;;;;;;;;;;;;;;19.16;52.19;100831.13;4194119;28;20054;-66
2023/08/31 03:41:59;;;;;;;;;;;;;;;19.16;52.10;100833.81;4194492;28;20026;-66
2023/08/31 03:44:01;;;;;;;;;;;;;;;19.15;51.89;100834.78;4195178;28;19928;-65
2023/08/31 03:46:02;;;;;;;;;;;;;;;19.15;52.22;100838.31;4195271;28;19969;-65
2023/08/31 03:48:04;;;;;;;;;;;;;;;19.15;52.20;100843.63;4195172;28;19963;-65
2023/08/31 03:50:06;;;;;;;;;;;;;;;19.15;52.13;100840.13;4194925;28;19924;-66
2023/08/31 03:52:07;;;;;;;;;;;;;;;19.14;51.97;100838.41;4194297;28;19971;-65
2023/08/31 03:54:09;;;;;;;;;;;;;;;19.14;52.27;100835.75;4194627;28;20397;-66
2023/08/31 03:56:11;;;;;;;;;;;;;;;19.14;52.25;100839.25;4177380;28;20405;-65
2023/08/31 03:58:13;;;;;;;;;;;;;;;19.13;52.23;100845.53;4195056;28;19928;-65
2023/08/31 04:00:14;;;;;;;;;;;;;;;19.13;52.28;100834.03;4195179;28;20389;-65
2023/08/31 04:02:16;;;;;;;;;;;;;;;19.09;52.03;100825.41;4194112;28;19924;-66
2023/08/31 04:04:17;;;;;;;;;;;;;;;19.13;52.30;100840.22;4194952;28;19925;-65
2023/08/31 04:06:19;;;;;;;;;;;;;;;19.13;52.27;100847.38;4194886;28;19925;-65
2023/08/31 04:08:21;;;;;;;;;;;;;;;19.12;52.15;100835.00;4194446;28;19929;-65
2023/08/31 04:10:23;;;;;;;;;;;;;;;19.12;52.15;100835.00;4194859;28;19925;-65
2023/08/31 04:12:25;;;;;;;;;;;;;;;19.11;52.15;100838.63;4193819;28;19924;-65
2023/08/31 04:14:27;;;;;;;;;;;;;;;19.11;52.06;100841.28;4194795;28;20007;-65
2023/08/31 04:16:28;;;;;;;;;;;;;;;19.11;52.04;100843.94;4194728;27;20305;-65
2023/08/31 04:18:30;;;;;;;;;;;;;;;19.09;52.32;100836.06;4194756;28;19924;-65
2023/08/31 04:20:32;;;;;;;;;;;;;;;19.10;52.26;100834.25;4194644;28;19928;-66
2023/08/31 04:22:34;;;;;;;;;;;;;;;19.09;52.46;100836.06;4193491;28;20317;-66
2023/08/31 04:24:35;;;;;;;;;;;;;;;19.10;52.37;100836.91;4194766;28;20018;-65
2023/08/31 04:26:37;;;;;;;;;;;;;;;19.10;52.10;100839.56;4194608;28;19967;-65
2023/08/31 04:28:39;;;;;;;;;;;;;;;19.08;52.27;100836.19;4194569;28;20351;-65
2023/08/31 04:30:41;;;;;;;;;;;;;;;19.09;52.31;100843.19;4194459;28;19967;-65
2023/08/31 04:32:44;;;;;;;;;;;;;;;19.08;52.10;100837.03;4193618;28;19924;-65
2023/08/31 04:34:46;;;;;;;;;;;;;;;19.08;52.08;100847.69;4194672;28;19924;-65
2023/08/31 04:36:48;;;;;;;;;;;;;;;19.08;52.35;100849.50;4194316;28;19956;-65
2023/08/31 04:38:50;;;;;;;;;;;;;;;19.08;52.37;100838.84;4194455;28;19929;-65
2023/08/31 04:40:51;;;;;;;;;;;;;;;19.08;52.33;100849.50;4194465;28;19957;-66
2023/08/31 04:42:53;;;;;;;;;;;;;;;18.98;52.50;100839.47;4193495;28;20012;-65
2023/08/31 04:44:55;;;;;;;;;;;;;;;19.07;52.08;100853.13;4194831;28;19931;-65
2023/08/31 04:46:56;;;;;;;;;;;;;;;19.07;52.37;100858.47;4194521;28;20415;-66
2023/08/31 04:48:58;;;;;;;;;;;;;;;19.07;52.45;100869.13;4194606;28;19924;-65
2023/08/31 04:51:00;;;;;;;;;;;;;;;19.06;52.25;100867.41;4195336;28;20334;-65
2023/08/31 04:53:01;;;;;;;;;;;;;;;19.05;52.15;100863.88;4196368;28;19995;-65
2023/08/31 04:55:07;;;;;;;;;;;;;;;19.06;52.34;100865.59;4197375;28;19924;-65
2023/08/31 04:57:10;;;;;;;;;;;;;;;19.06;52.49;100864.75;4197328;28;20286;-65
2023/08/31 04:59:11;;;;;;;;;;;;;;;19.05;52.29;100869.22;4197118;28;19928;-65
2023/08/31 05:01:13;;;;;;;;;;;;;;;19.06;52.47;100870.06;4197418;28;20024;-65
2023/08/31 05:03:14;;;;;;;;;;;;;;;19.05;52.24;100865.69;4196420;28;19977;-65
2023/08/31 05:05:18;;;;;;;;;;;;;;;19.04;52.33;100867.53;4197281;28;20020;-65
2023/08/31 05:07:19;;;;;;;;;;;;;;;19.05;52.53;100863.03;4197007;28;19932;-65
2023/08/31 05:09:22;;;;;;;;;;;;;;;19.04;52.43;100872.84;4197134;28;20309;-65
2023/08/31 05:11:24;;;;;;;;;;;;;;;19.04;52.41;100870.19;4197569;28;19932;-65
2023/08/31 05:13:26;;;;;;;;;;;;;;;19.03;52.53;100871.16;4195939;28;19976;-65
2023/08/31 05:15:28;;;;;;;;;;;;;;;19.03;52.54;100873.81;4196929;28;19925;-65
2023/08/31 05:17:30;;;;;;;;;;;;;;;19.04;52.55;100874.66;4196843;27;19946;-65
2023/08/31 05:19:32;;;;;;;;;;;;;;;19.03;52.68;100863.16;4196958;28;19944;-66
2023/08/31 05:21:33;;;;;;;;;;;;;;;19.02;52.67;100871.22;4196910;28;19924;-65
2023/08/31 05:23:35;;;;;;;;;;;;;;;19.03;52.44;100873.81;4196085;28;19924;-65
2023/08/31 05:25:44;;;;;;;;;;;;;;;19.03;52.54;100876.47;4197203;27;19925;-65
2023/08/31 05:27:46;;;;;;;;;;;;;;;19.03;52.54;100875.59;4179121;28;20333;-65
2023/08/31 05:29:47;;;;;;;;;;;;;;;19.03;52.58;100878.28;4197011;28;19924;-65
2023/08/31 05:31:51;;;;;;;;;;;;;;;19.02;52.41;100885.44;4196579;28;19958;-65
2023/08/31 05:33:52;;;;;;;;;;;;;;;19.03;52.61;100878.28;4195898;28;19928;-65
2023/08/31 05:35:54;;;;;;;;;;;;;;;19.02;52.69;100882.75;4196441;28;20354;-65
2023/08/31 05:37:56;;;;;;;;;;;;;;;19.01;52.73;100883.72;4196983;28;19932;-65
2023/08/31 05:39:57;;;;;;;;;;;;;;;19.02;52.70;100877.44;4196922;28;20282;-65
2023/08/31 05:41:59;;;;;;;;;;;;;;;19.02;52.56;100892.56;4196666;28;19925;-66
2023/08/31 05:44:03;;;;;;;;;;;;;;;19.02;52.39;100885.44;4196214;28;19929;-66
2023/08/31 05:46:04;;;;;;;;;;;;;;;19.02;52.74;100888.09;4196527;28;20019;-66
2023/08/31 05:48:07;;;;;;;;;;;;;;;19.01;52.71;100888.22;4196457;28;19931;-66
2023/08/31 05:50:08;;;;;;;;;;;;;;;19.01;52.39;100885.53;4196104;28;19969;-65
2023/08/31 05:52:10;;;;;;;;;;;;;;;19.01;52.36;100893.53;4196085;27;19931;-66
2023/08/31 05:54:13;;;;;;;;;;;;;;;19.01;52.70;100893.53;4196490;28;19929;-65
2023/08/31 05:56:14;;;;;;;;;;;;;;;19.01;52.71;100894.38;4196654;28;19940;-66
2023/08/31 05:58:16;;;;;;;;;;;;;;;19.01;52.62;100896.22;4196666;28;20422;-66
2023/08/31 06:00:17;;;;;;;;;;;;;;;18.99;52.51;100891.81;4196665;28;19936;-65
2023/08/31 06:02:19;;;;;;;;;;;;;;;19.00;52.50;100898.00;4195090;28;19924;-66
2023/08/31 06:04:21;;;;;;;;;;;;;;;18.99;52.59;100899.81;4195988;28;20312;-65
2023/08/31 06:06:22;;;;;;;;;;;;;;;18.99;52.45;100905.16;4196304;28;19944;-65
2023/08/31 06:08:24;;;;;;;;;;;;;;;19.01;52.39;100904.19;4196568;28;19924;-65
2023/08/31 06:10:25;;;;;;;;;;;;;;;18.99;52.52;100907.81;4196441;28;19929;-66
2023/08/31 06:12:27;;;;;;;;;;;;;;;18.90;52.57;100894.25;4195689;28;19977;-66
2023/08/31 06:14:29;;;;;;;;;;;;;;;19.01;52.79;100906.88;4196095;28;19931;-65
2023/08/31 06:16:30;;;;;;;;;;;;;;;18.99;52.66;100910.47;4196010;28;19924;-66
2023/08/31 06:18:32;;;;;;;;;;;;;;;19.00;52.54;100908.66;4195885;28;19928;-66
2023/08/31 06:20:34;;;;;;;;;;;;;;;19.01;52.59;100904.19;4196287;28;19925;-65
2023/08/31 06:22:35;;;;;;;;;;;;;;;19.01;52.50;100901.53;4195550;28;19924;-66
2023/08/31 06:24:37;;;;;;;;;;;;;;;18.99;52.78;100898.94;4196046;28;19925;-65
2023/08/31 06:26:39;;;;;;;;;;;;;;;19.01;52.56;100896.22;4196295;28;19944;-65
2023/08/31 06:28:40;;;;;;;;;;;;;;;18.99;52.79;100897.16;4196239;28;20385;-65
2023/08/31 06:30:47;;;;;;;;;;;;;;;18.99;52.43;100898.94;4196138;28;20374;-66
2023/08/31 06:32:50;;;;;;;;;;;;;;;19.01;52.63;100905.03;4195034;28;19924;-66
2023/08/31 06:34:51;;;;;;;;;;;;;;;19.02;52.81;100903.22;4195947;28;20016;-65
2023/08/31 06:36:53;;;;;;;;;;;;;;;19.01;52.80;100902.38;4178569;28;20014;-66
2023/08/31 06:38:54;;;;;;;;;;;;;;;19.02;52.84;100908.53;4195951;28;19963;-65
2023/08/31 06:40:58;;;;;;;;;;;;;;;19.01;52.55;100910.38;4195835;28;19963;-65
2023/08/31 06:43:00;;;;;;;;;;;;;;;19.01;52.84;100914.88;4194885;28;19924;-65
2023/08/31 06:45:03;;;;;;;;;;;;;;;19.01;52.79;100912.19;4195848;28;19925;-65
2023/08/31 06:47:04;;;;;;;;;;;;;;;19.02;52.84;100911.22;4195808;28;20377;-65
2023/08/31 06:49:06;;;;;;;;;;;;;;;19.01;52.43;100910.38;4195835;28;19999;-66
2023/08/31 06:51:07;;;;;;;;;;;;;;;19.02;52.49;100913.88;4195803;28;20381;-65
2023/08/31 06:53:09;;;;;;;;;;;;;;;19.02;52.75;100912.09;4210495;28;19924;-66
2023/08/31 06:55:11;;;;;;;;;;;;;;;19.01;52.58;100915.69;4195948;28;19932;-65
2023/08/31 06:57:13;;;;;;;;;;;;;;;19.02;52.61;100927.19;4196000;28;20019;-66
2023/08/31 06:59:14;;;;;;;;;;;;;;;19.00;52.72;100922.00;4195596;28;19925;-65
2023/08/31 07:01:16;;;;;;;;;;;;;;;19.01;52.59;100930.84;4195724;28;19931;-66
2023/08/31 07:03:17;;;;;;;;;;;;;;;18.99;52.53;100928.28;4194554;28;19931;-66
2023/08/31 07:05:25;;;;;;;;;;;;;;;19.01;52.55;100933.53;4195646;28;19925;-65
2023/08/31 07:07:26;;;;;;;;;;;;;;;18.99;52.73;100931.81;4195519;28;20026;-64
2023/08/31 07:09:28;;;;;;;;;;;;;;;18.99;52.82;100931.81;4195676;28;19924;-66
2023/08/31 07:11:29;;;;;;;;;;;;;;;19.00;52.78;100937.97;4195719;28;19925;-65
2023/08/31 07:13:31;;;;;;;;;;;;;;;19.01;52.69;100942.34;4194474;28;20045;-65
2023/08/31 07:15:33;;;;;;;;;;;;;;;19.01;52.51;100933.53;4195700;28;19928;-65
2023/08/31 07:17:35;;;;;;;;;;;;;;;19.00;52.73;100929.97;4195005;27;19949;-65
2023/08/31 07:19:37;;;;;;;;;;;;;;;19.01;52.64;100938.84;4195265;28;20043;-65
2023/08/31 07:21:39;;;;;;;;;;;;;;;19.01;52.82;100939.69;4195523;28;19924;-64
2023/08/31 07:23:40;;;;;;;;;;;;;;;19.03;52.78;100942.25;4194485;28;19936;-64
2023/08/31 07:25:42;;;;;;;;;;;;;;;19.02;52.78;100944.06;4195213;28;19972;-65
2023/08/31 07:27:44;;;;;;;;;;;;;;;19.02;52.42;100943.19;4194959;28;19971;-65
2023/08/31 07:29:45;;;;;;;;;;;;;;;19.02;52.70;100946.75;4195077;28;19975;-66
2023/08/31 07:31:47;;;;;;;;;;;;;;;19.02;52.79;100946.75;4194765;28;20408;-66
2023/08/31 07:33:48;;;;;;;;;;;;;;;19.03;52.54;100952.91;4194170;28;20417;-65
2023/08/31 07:35:50;;;;;;;;;;;;;;;19.03;52.80;100945.78;4195229;28;19973;-66
2023/08/31 07:37:52;;;;;;;;;;;;;;;19.03;52.64;100948.44;4195301;28;19925;-65
2023/08/31 07:39:54;;;;;;;;;;;;;;;19.03;52.80;100951.13;4195318;28;20419;-64
2023/08/31 07:41:57;;;;;;;;;;;;;;;19.04;52.64;100957.28;4195257;28;19969;-64
2023/08/31 07:43:58;;;;;;;;;;;;;;;19.19;52.34;100955.38;4176397;28;19979;-65
2023/08/31 07:46:05;;;;;;;;;;;;;;;19.27;52.11;100953.91;4194580;28;19976;-65
2023/08/31 07:48:07;;;;;;;;;;;;;;;19.36;51.61;100956.91;4195165;28;19925;-64
2023/08/31 07:50:09;;;;;;;;;;;;;;;19.42;51.75;100964.50;4194985;28;19925;-64
2023/08/31 07:52:10;;;;;;;;;;;;;;;19.45;51.71;100965.13;4195226;28;19924;-64
2023/08/31 07:54:18;;;;;;;;;;;;;;;19.51;51.37;100966.50;4193929;28;19928;-66
2023/08/31 07:56:21;;;;;;;;;;;;;;;19.58;51.20;100966.94;4195055;28;19978;-64
2023/08/31 07:58:23;;;;;;;;;;;;;;;19.64;51.12;100967.34;4194767;28;19924;-64
2023/08/31 08:00:25;;;;;;;;;;;;;;;19.71;51.24;100969.59;4194752;28;19977;-64
2023/08/31 08:02:26;;;;;;;;;;;;;;;19.80;50.93;100963.63;4194660;28;19999;-65
2023/08/31 08:04:29;;;;;;;;;;;;;;;19.84;50.71;100961.63;4194188;27;19929;-64
2023/08/31 08:06:31;;;;;;;;;;;;;;;19.86;50.87;100963.22;4195116;28;19925;-64
2023/08/31 08:08:32;;;;;;;;;;;;;;;19.90;50.99;100961.19;4194734;28;19946;-64
2023/08/31 08:10:34;;;;;;;;;;;;;;;19.93;50.67;100967.16;4194755;28;19929;-63
2023/08/31 08:12:39;;;;;;;;;;;;;;;19.95;50.77;100965.25;4176528;28;20425;-64
2023/08/31 08:14:40;;;;;;;;;;;;;;;20.02;50.42;100967.47;4194129;28;20027;-64
2023/08/31 08:16:42;;;;;;;;;;;;;;;20.03;50.31;100964.69;4194718;28;19925;-66
2023/08/31 08:18:44;;;;;;;;;;;;;;;20.05;50.42;100956.53;4194835;28;20462;-66
2023/08/31 08:20:52;;;;;;;;;;;;;;;20.08;50.43;100957.19;4194764;28;19977;-65
2023/08/31 08:22:54;;;;;;;;;;;;;;;20.10;50.30;100965.09;4192543;28;20408;-66
2023/08/31 08:24:55;;;;;;;;;;;;;;;20.09;50.57;100963.38;4194392;28;19964;-65
2023/08/31 08:26:57;;;;;;;;;;;;;;;20.10;50.75;100955.25;4194398;28;19931;-65
2023/08/31 08:28:59;;;;;;;;;;;;;;;20.14;50.40;100963.06;4194493;28;19977;-65
2023/08/31 08:31:01;;;;;;;;;;;;;;;20.14;50.47;100961.22;4194626;28;19928;-66
2023/08/31 08:33:02;;;;;;;;;;;;;;;20.15;50.44;100962.94;4193597;28;19939;-66
2023/08/31 08:35:04;;;;;;;;;;;;;;;20.17;50.51;100960.16;4194635;28;20412;-66
2023/08/31 08:37:06;;;;;;;;;;;;;;;20.18;50.47;100954.69;4194449;28;20284;-66
2023/08/31 08:39:07;;;;;;;;;;;;;;;20.08;50.06;100954.50;4194547;28;19968;-66
2023/08/31 08:41:11;;;;;;;;;;;;;;;20.14;50.46;100952.38;4194533;28;19963;-66
2023/08/31 08:43:13;;;;;;;;;;;;;;;20.19;50.48;100955.56;4193075;28;19924;-66
2023/08/31 08:45:15;;;;;;;;;;;;;;;20.20;50.33;100960.78;4194435;28;19925;-66
2023/08/31 08:47:17;;;;;;;;;;;;;;;20.20;50.29;100963.47;4194444;28;19925;-67
2023/08/31 08:49:19;;;;;;;;;;;;;;;20.21;49.89;100970.50;4194470;28;19924;-67
2023/08/31 08:51:21;;;;;;;;;;;;;;;20.21;50.36;100973.19;4194191;28;19932;-67
2023/08/31 08:53:23;;;;;;;;;;;;;;;20.20;50.16;100963.47;4193204;28;19928;-67
2023/08/31 08:55:24;;;;;;;;;;;;;;;20.20;49.90;100971.47;4194197;28;19955;-67
2023/08/31 08:57:26;;;;;;;;;;;;;;;20.19;50.02;100972.44;4194028;28;19925;-67
2023/08/31 08:59:27;;;;;;;;;;;;;;;20.20;50.00;100973.31;4193951;28;20309;-68
2023/08/31 09:01:29;;;;;;;;;;;;;;;20.19;49.95;100969.75;4194104;28;19963;-68
2023/08/31 09:03:30;;;;;;;;;;;;;;;20.28;49.25;100976.28;4192407;28;19925;-68
2023/08/31 09:05:32;;;;;;;;;;;;;;;20.43;48.92;100966.28;4194178;28;19933;-67
2023/08/31 09:07:35;;;;;;;;;;;;;;;20.56;48.17;100966.22;4194232;28;19932;-68
2023/08/31 09:09:50;;;;;;;;;;;;;;;20.65;47.98;100970.88;4194341;28;19924;-68
2023/08/31 09:11:51;;;;;;;;;;;;;;;20.70;48.15;100962.53;4193174;28;20011;-66
2023/08/31 09:13:56;;;;;;;;;;;;;;;20.64;47.89;100963.81;4189845;28;19929;-65
2023/08/31 09:15:58;;;;;;;;;;;;;;;20.59;48.49;100963.31;4203833;28;20373;-71
2023/08/31 09:17:59;;;;;;;;;;;;;;;20.51;48.68;100961.22;4210032;28;19928;-71
2023/08/31 09:20:04;;;;;;;;;;;;;;;20.48;48.47;100963.28;4190469;27;19939;-68
2023/08/31 09:22:05;;;;;;;;;;;;;;;20.53;48.12;100961.09;4208545;28;20540;-69
2023/08/31 09:24:08;;;;;;;;;;;;;;;20.77;49.29;100961.13;4204451;27;19933;-60
2023/08/31 09:26:11;;;;;;;;;;;;;;;21.00;48.33;100961.22;4192098;28;19977;-69
2023/08/31 09:28:13;;;;;;;;;;;;;;;21.15;47.47;100960.03;4166683;27;19934;-65
2023/08/31 09:30:15;;;;;;;;;;;;;;;21.24;48.03;100966.53;4185234;28;19933;-63
2023/08/31 09:32:19;;;;;;;;;;;;;;;21.34;48.04;100969.34;4203706;27;19946;-65
2023/08/31 09:34:32;;;;;;;;;;;;;;;21.47;48.95;100958.53;4188355;28;20385;-64
2023/08/31 09:36:33;;;;;;;;;;;;;;;21.62;48.13;100949.31;4197330;27;19931;-66
2023/08/31 09:38:41;;;;;;;;;;;;;;;21.76;48.20;100952.75;4211442;27;20420;-66
2023/08/31 09:40:43;;;;;;;;;;;;;;;21.83;48.25;100949.44;4196784;28;19966;-67
2023/08/31 09:42:49;;;;;;;;;;;;;;;21.86;47.48;100951.03;4198915;27;20394;-74
2023/08/31 09:44:51;;;;;;;;;;;;;;;21.92;47.64;100947.88;4254954;27;19926;-66
2023/08/31 09:46:53;;;;;;;;;;;;;;;21.97;46.30;100942.13;4275335;27;19935;-68
2023/08/31 09:48:55;;;;;;;;;;;;;;;21.96;46.31;100946.66;4208401;27;19928;-72
2023/08/31 09:50:57;;;;;;;;;;;;;;;22.05;45.61;100949.56;4195993;28;19947;-66
2023/08/31 09:53:03;;;;;;;;;;;;;;;22.04;45.48;100946.00;4192207;27;19968;-65
2023/08/31 09:55:05;;;;;;;;;;;;;;;22.03;45.76;100952.38;4194649;27;19935;-66
2023/08/31 09:57:07;;;;;;;;;;;;;;;22.02;45.31;100954.19;4212978;27;19971;-66
2023/08/31 09:59:13;;;;;;;;;;;;;;;22.10;45.85;100950.03;4223920;27;19983;-64
2023/08/31 10:01:15;;;;;;;;;;;;;;;22.21;46.75;100949.16;4194680;28;20046;-66
2023/08/31 10:03:30;;;;;;;;;;;;;;;22.26;46.25;100949.63;4211436;27;19929;-65
2023/08/31 10:05:35;;;;;;;;;;;;;;;22.33;45.98;100958.88;4196010;27;19961;-69
2023/08/31 10:07:37;;;;;;;;;;;;;;;22.37;45.93;100946.09;4200093;27;19925;-66
2023/08/31 10:09:38;;;;;;;;;;;;;;;22.43;45.96;100942.91;4213029;27;20016;-68
2023/08/31 10:11:42;;;;;;;;;;;;;;;22.49;45.92;100940.59;4283084;27;20017;-71
2023/08/31 10:13:44;;;;;;;;;;;;;;;22.56;45.57;100942.78;4232635;27;20010;-69
2023/08/31 10:15:48;;;;;;;;;;;;;;;22.51;45.49;100935.09;4193471;28;19976;-63
2023/08/31 10:17:50;;;;;;;;;;;;;;;22.61;45.37;100937.88;4194843;27;20468;-70
2023/08/31 10:19:51;;;;;;;;;;;;;;;22.67;45.72;100942.72;4210409;27;19932;-70
2023/08/31 10:21:53;;;;;;;;;;;;;;;22.62;45.72;100936.91;4283454;27;20307;-67
2023/08/31 10:23:55;;;;;;;;;;;;;;;22.61;46.39;100937.88;4253350;27;19951;-66
2023/08/31 10:25:56;;;;;;;;;;;;;;;22.67;45.83;100936.53;4231282;27;19944;-64
2023/08/31 10:27:58;;;;;;;;;;;;;;;22.63;46.04;100943.97;4212130;28;20451;-66